createdAt,value
2023-03-05T00:01:02.065Z,6.26
2023-03-05T00:04:31.158Z,6.24
2023-03-05T00:08:00.739Z,6.21
2023-03-05T00:11:30.516Z,6.19
2023-03-05T00:14:59.289Z,6.18
2023-03-05T00:18:28.000Z,6.17
2023-03-05T00:22:02.924Z,6.18
2023-03-05T00:25:32.617Z,6.20
2023-03-05T00:29:01.311Z,6.24
2023-03-05T00:32:30.399Z,6.26
2023-03-05T00:35:59.671Z,6.27
2023-03-05T00:39:28.850Z,6.29
2023-03-05T00:42:52.357Z,6.31
2023-03-05T00:46:21.451Z,6.34
2023-03-05T00:49:50.151Z,6.37
2023-03-05T00:53:19.250Z,6.34
2023-03-05T00:56:48.504Z,6.37
2023-03-05T01:00:10.898Z,6.33
2023-03-05T01:03:40.280Z,6.28
2023-03-05T01:07:10.088Z,6.26
2023-03-05T01:10:39.252Z,6.22
2023-03-05T01:14:08.549Z,6.24
2023-03-05T01:17:37.748Z,6.24
2023-03-05T01:21:06.694Z,6.21
2023-03-05T01:24:35.691Z,6.24
2023-03-05T01:28:05.352Z,6.26
2023-03-05T01:31:37.357Z,6.28
2023-03-05T01:35:06.606Z,6.28
2023-03-05T01:38:35.487Z,6.29
2023-03-05T01:42:04.655Z,6.29
2023-03-05T01:45:43.160Z,6.27
2023-03-05T01:49:11.928Z,6.25
2023-03-05T01:52:47.183Z,6.26
2023-03-05T01:56:17.138Z,6.27
2023-03-05T01:59:48.999Z,6.28
2023-03-05T02:03:18.631Z,6.28
2023-03-05T02:06:47.935Z,6.29
2023-03-05T02:10:17.104Z,6.25
2023-03-05T02:13:40.564Z,6.22
2023-03-05T02:17:10.023Z,6.19
2023-03-05T02:20:47.921Z,6.15
2023-03-05T02:24:16.968Z,6.11
2023-03-05T02:27:36.205Z,6.08
2023-03-05T02:31:05.600Z,6.05
2023-03-05T02:34:34.768Z,6.06
2023-03-05T02:37:57.375Z,6.05
2023-03-05T02:41:26.985Z,6.05
2023-03-05T02:44:56.473Z,6.02
2023-03-05T02:48:25.482Z,6.00
2023-03-05T02:51:47.636Z,6.00
2023-03-05T02:55:16.753Z,5.99
2023-03-05T02:58:45.633Z,6.00
2023-03-05T03:02:14.386Z,5.99
2023-03-05T03:05:43.365Z,6.00
2023-03-05T03:09:12.785Z,6.00
2023-03-05T03:12:42.221Z,6.02
2023-03-05T03:16:11.478Z,6.03
2023-03-05T03:19:41.728Z,6.04
2023-03-05T03:23:10.694Z,6.05
2023-03-05T03:26:40.318Z,6.07
2023-03-05T03:30:09.585Z,6.11
2023-03-05T03:33:39.079Z,6.16
2023-03-05T03:37:08.411Z,6.20
2023-03-05T03:40:37.822Z,6.20
2023-03-05T03:44:06.981Z,6.15
2023-03-05T03:47:36.284Z,6.09
2023-03-05T03:51:05.438Z,6.02
2023-03-05T03:54:34.637Z,5.96
2023-03-05T03:58:03.713Z,5.90
2023-03-05T04:01:25.709Z,5.86
2023-03-05T04:04:55.307Z,5.81
2023-03-05T04:08:24.402Z,5.77
2023-03-05T04:11:53.058Z,5.74
2023-03-05T04:15:22.197Z,5.72
2023-03-05T04:18:50.856Z,5.71
2023-03-05T04:22:20.065Z,5.68
2023-03-05T04:25:49.230Z,5.65
2023-03-05T04:29:17.942Z,5.62
2023-03-05T04:32:49.494Z,5.60
2023-03-05T04:36:18.659Z,5.56
2023-03-05T04:39:48.158Z,5.56
2023-03-05T04:43:17.570Z,5.56
2023-03-05T04:46:27.557Z,5.54
2023-03-05T04:49:56.981Z,5.53
2023-03-05T04:53:26.449Z,5.53
2023-03-05T04:56:48.418Z,5.49
2023-03-05T05:00:11.219Z,5.45
2023-03-05T05:03:40.413Z,5.41
2023-03-05T05:07:09.220Z,5.36
2023-03-05T05:11:17.641Z,5.28
2023-03-05T05:14:28.758Z,5.21
2023-03-05T05:18:02.437Z,5.18
2023-03-05T05:21:31.897Z,5.15
2023-03-05T05:25:01.263Z,5.14
2023-03-05T05:28:30.424Z,5.12
2023-03-05T05:31:59.627Z,5.06
2023-03-05T05:35:28.852Z,4.94
2023-03-05T05:38:58.502Z,4.82
2023-03-05T05:42:27.644Z,4.72
2023-03-05T05:45:56.769Z,4.62
2023-03-05T05:49:26.524Z,4.54
2023-03-05T05:52:55.718Z,4.51
2023-03-05T05:56:26.482Z,4.48
2023-03-05T05:59:56.445Z,4.47
2023-03-05T06:03:25.874Z,4.46
2023-03-05T06:07:25.513Z,4.43
2023-03-05T06:10:44.148Z,4.42
2023-03-05T06:14:05.473Z,4.38
2023-03-05T06:17:34.902Z,4.35
2023-03-05T06:21:04.354Z,4.34
2023-03-05T06:24:24.081Z,4.32
2023-03-05T06:27:53.201Z,4.31
2023-03-05T06:31:22.222Z,4.28
2023-03-05T06:34:51.099Z,4.25
2023-03-05T06:38:20.476Z,4.21
2023-03-05T06:41:49.922Z,4.17
2023-03-05T06:45:22.030Z,4.10
2023-03-05T06:48:52.902Z,4.06
2023-03-05T06:52:22.632Z,4.03
2023-03-05T06:55:51.861Z,4.04
2023-03-05T06:59:20.836Z,4.04
2023-03-05T07:02:50.192Z,4.02
2023-03-05T07:06:22.475Z,4.01
2023-03-05T07:09:51.522Z,4.00
2023-03-05T07:13:05.768Z,4.00
2023-03-05T07:16:35.251Z,4.01
2023-03-05T07:20:05.479Z,4.02
2023-03-05T07:23:34.932Z,4.05
2023-03-05T07:27:07.426Z,4.08
2023-03-05T07:30:36.624Z,4.07
2023-03-05T07:34:06.038Z,4.09
2023-03-05T07:37:35.557Z,4.08
2023-03-05T07:41:04.749Z,4.09
2023-03-05T07:44:33.839Z,4.10
2023-03-05T07:47:55.103Z,4.09
2023-03-05T07:51:24.208Z,4.07
2023-03-05T07:54:46.636Z,4.03
2023-03-05T07:58:15.730Z,4.01
2023-03-05T08:01:44.958Z,3.96
2023-03-05T08:05:14.722Z,3.91
2023-03-05T08:08:52.649Z,3.86
2023-03-05T08:12:21.714Z,3.81
2023-03-05T08:15:51.482Z,3.73
2023-03-05T08:19:20.694Z,3.63
2023-03-05T08:22:49.742Z,3.55
2023-03-05T08:26:18.977Z,3.47
2023-03-05T08:29:47.605Z,3.40
2023-03-05T08:33:16.669Z,3.35
2023-03-05T08:36:45.796Z,3.30
2023-03-05T08:40:14.991Z,3.25
2023-03-05T08:43:44.026Z,3.18
2023-03-05T08:47:13.335Z,3.10
2023-03-05T08:50:42.749Z,3.04
2023-03-05T08:54:11.860Z,2.97
2023-03-05T08:57:33.886Z,2.92
2023-03-05T09:01:03.233Z,2.88
2023-03-05T09:04:22.265Z,2.84
2023-03-05T09:07:51.529Z,2.81
2023-03-05T09:11:20.659Z,2.77
2023-03-05T09:14:50.067Z,2.74
2023-03-05T09:18:19.243Z,2.68
2023-03-05T09:21:48.584Z,2.62
2023-03-05T09:25:17.834Z,2.57
2023-03-05T09:28:46.875Z,2.54
2023-03-05T09:32:16.408Z,2.49
2023-03-05T09:35:45.944Z,2.44
2023-03-05T09:39:15.665Z,2.39
2023-03-05T09:42:57.458Z,2.34
2023-03-05T09:46:41.779Z,2.30
2023-03-05T09:50:12.458Z,2.25
2023-03-05T09:53:57.077Z,2.20
2023-03-05T09:57:25.865Z,2.15
2023-03-05T10:00:54.142Z,2.10
2023-03-05T10:04:47.604Z,2.08
2023-03-05T10:08:16.316Z,2.06
2023-03-05T10:11:47.549Z,2.03
2023-03-05T10:15:16.994Z,2.00
2023-03-05T10:19:00.531Z,1.97
2023-03-05T10:22:34.997Z,1.94
2023-03-05T10:26:08.125Z,1.89
2023-03-05T10:29:36.848Z,1.86
2023-03-05T10:33:06.135Z,1.84
2023-03-05T10:36:46.018Z,1.82
2023-03-05T10:40:27.279Z,1.81
2023-03-05T10:44:09.030Z,1.78
2023-03-05T10:47:37.821Z,1.72
2023-03-05T10:50:59.874Z,1.68
2023-03-05T10:54:38.031Z,1.64
2023-03-05T10:58:12.958Z,1.61
2023-03-05T11:01:44.412Z,1.59
2023-03-05T11:05:28.730Z,1.57
2023-03-05T11:09:06.246Z,1.53
2023-03-05T11:12:43.836Z,1.50
2023-03-05T11:16:13.035Z,1.47
2023-03-05T11:19:41.240Z,1.44
2023-03-05T11:23:10.161Z,1.40
2023-03-05T11:26:39.732Z,1.37
2023-03-05T11:30:08.776Z,1.35
2023-03-05T11:33:52.713Z,1.38
2023-03-05T11:37:34.208Z,1.41
2023-03-05T11:41:14.857Z,1.41
2023-03-05T11:44:43.869Z,1.40
2023-03-05T11:48:25.166Z,1.40
2023-03-05T11:51:56.998Z,1.44
2023-03-05T11:55:32.356Z,1.50
2023-03-05T11:59:12.317Z,1.53
2023-03-05T12:02:44.424Z,1.54
2023-03-05T12:06:13.208Z,1.53
2023-03-05T12:09:42.455Z,1.53
2023-03-05T12:13:11.548Z,1.54
2023-03-05T12:16:49.313Z,1.53
2023-03-05T12:20:26.624Z,1.52
2023-03-05T12:23:55.652Z,1.50
2023-03-05T12:27:35.481Z,1.49
2023-03-05T12:31:16.328Z,1.46
2023-03-05T12:34:51.298Z,1.45
2023-03-05T12:38:27.022Z,1.43
2023-03-05T12:42:04.917Z,1.43
2023-03-05T12:45:51.534Z,1.45
2023-03-05T12:49:23.582Z,1.46
2023-03-05T12:52:52.267Z,1.46
2023-03-05T12:56:33.967Z,1.47
2023-03-05T13:00:03.037Z,1.47
2023-03-05T13:03:35.047Z,1.50
2023-03-05T13:07:06.983Z,1.53
2023-03-05T13:10:38.566Z,1.52
2023-03-05T13:14:07.824Z,1.52
2023-03-05T13:17:39.949Z,1.53
2023-03-05T13:21:07.224Z,1.52
2023-03-05T13:24:39.196Z,1.53
2023-03-05T13:28:11.738Z,1.52
2023-03-05T13:31:41.387Z,1.50
2023-03-05T13:35:54.837Z,1.51
2023-03-05T13:39:06.135Z,1.52
2023-03-05T13:42:37.691Z,1.54
2023-03-05T13:46:07.056Z,1.59
2023-03-05T13:49:35.873Z,1.62
2023-03-05T13:53:07.521Z,1.65
2023-03-05T13:56:36.865Z,1.67
2023-03-05T14:00:06.276Z,1.70
2023-03-05T14:03:35.027Z,1.74
2023-03-05T14:07:02.384Z,1.77
2023-03-05T14:10:33.906Z,1.80
2023-03-05T14:14:02.530Z,1.82
2023-03-05T14:17:31.356Z,1.83
2023-03-05T14:21:12.006Z,1.84
2023-03-05T14:24:47.019Z,1.84
2023-03-05T14:28:18.646Z,1.84
2023-03-05T14:31:53.526Z,1.84
2023-03-05T14:35:22.989Z,1.83
2023-03-05T14:38:36.218Z,1.80
2023-03-05T14:42:20.787Z,1.78
2023-03-05T14:45:53.111Z,1.73
2023-03-05T14:49:22.431Z,1.70
2023-03-05T14:52:51.181Z,1.66
2023-03-05T14:56:19.218Z,1.64
2023-03-05T14:59:48.413Z,1.62
2023-03-05T15:03:20.796Z,1.58
2023-03-05T15:06:50.438Z,1.54
2023-03-05T15:10:10.435Z,1.51
2023-03-05T15:13:38.514Z,1.49
2023-03-05T15:17:07.802Z,1.48
2023-03-05T15:20:36.973Z,1.45
2023-03-05T15:24:06.232Z,1.41
2023-03-05T15:27:33.663Z,1.39
2023-03-05T15:31:02.925Z,1.40
2023-03-05T15:34:32.190Z,1.40
2023-03-05T15:38:01.367Z,1.40
2023-03-05T15:41:30.242Z,1.42
2023-03-05T15:44:59.054Z,1.43
2023-03-05T15:48:28.394Z,1.45
2023-03-05T15:51:57.776Z,1.49
2023-03-05T15:55:26.544Z,1.52
2023-03-05T15:58:48.152Z,1.53
2023-03-05T16:02:15.383Z,1.56
2023-03-05T16:05:44.315Z,1.61
2023-03-05T16:09:13.387Z,1.69
2023-03-05T16:12:42.742Z,1.77
2023-03-05T16:16:42.340Z,1.83
2023-03-05T16:20:01.370Z,1.85
2023-03-05T16:23:30.292Z,1.87
2023-03-05T16:26:59.124Z,1.90
2023-03-05T16:30:28.506Z,1.95
2023-03-05T16:34:00.266Z,2.02
2023-03-05T16:37:29.454Z,2.10
2023-03-05T16:41:07.691Z,2.17
2023-03-05T16:44:37.085Z,2.24
2023-03-05T16:48:06.213Z,2.30
2023-03-05T16:51:35.197Z,2.38
2023-03-05T16:55:04.082Z,2.43
2023-03-05T16:58:32.378Z,2.50
2023-03-05T17:02:01.141Z,2.58
2023-03-05T17:05:30.236Z,2.66
2023-03-05T17:08:59.554Z,2.76
2023-03-05T17:12:28.687Z,2.87
2023-03-05T17:15:57.867Z,2.99
2023-03-05T17:19:26.804Z,3.12
2023-03-05T17:22:56.383Z,3.26
2023-03-05T17:26:25.450Z,3.41
2023-03-05T17:29:54.285Z,3.57
2023-03-05T17:33:24.004Z,3.73
2023-03-05T17:36:56.691Z,3.88
2023-03-05T17:40:25.625Z,4.01
2023-03-05T17:43:47.376Z,4.12
2023-03-05T17:47:16.040Z,4.24
2023-03-05T17:50:45.307Z,4.36
2023-03-05T17:54:14.278Z,4.49
2023-03-05T17:57:43.365Z,4.60
2023-03-05T18:01:15.677Z,4.72
2023-03-05T18:04:45.254Z,4.80
2023-03-05T18:08:14.472Z,4.89
2023-03-05T18:11:44.278Z,4.97
2023-03-05T18:15:13.213Z,5.04
2023-03-05T18:18:42.490Z,5.11
2023-03-05T18:22:12.097Z,5.18
2023-03-05T18:25:41.704Z,5.25
2023-03-05T18:29:13.972Z,5.31
2023-03-05T18:32:43.220Z,5.36
2023-03-05T18:36:12.886Z,5.42
2023-03-05T18:39:41.646Z,5.45
2023-03-05T18:43:10.772Z,5.49
2023-03-05T18:46:40.163Z,5.53
2023-03-05T18:50:09.585Z,5.57
2023-03-05T18:53:38.401Z,5.63
2023-03-05T18:57:07.468Z,5.66
2023-03-05T19:00:36.389Z,5.71
2023-03-05T19:04:05.066Z,5.77
2023-03-05T19:07:33.936Z,5.83
2023-03-05T19:11:03.386Z,5.87
2023-03-05T19:14:35.523Z,5.90
2023-03-05T19:18:03.341Z,5.88
2023-03-05T19:21:35.316Z,5.86
2023-03-05T19:25:04.586Z,5.86
2023-03-05T19:28:33.692Z,5.90
2023-03-05T19:32:03.245Z,5.97
2023-03-05T19:35:32.359Z,6.06
2023-03-05T19:38:54.412Z,6.14
2023-03-05T19:42:23.648Z,6.20
2023-03-05T19:45:52.589Z,6.28
2023-03-05T19:49:21.674Z,6.33
2023-03-05T19:52:54.508Z,6.38
2023-03-05T19:56:23.664Z,6.42
2023-03-05T19:59:52.587Z,6.46
2023-03-05T20:03:42.720Z,6.49
2023-03-05T20:06:52.319Z,6.51
2023-03-05T20:10:23.411Z,6.45
2023-03-05T20:13:54.863Z,6.43
2023-03-05T20:17:20.097Z,6.42
2023-03-05T20:20:48.972Z,6.38
2023-03-05T20:24:18.280Z,6.36
2023-03-05T20:27:46.977Z,6.34
2023-03-05T20:30:49.186Z,6.38
2023-03-05T20:34:17.869Z,6.44
2023-03-05T20:37:46.869Z,6.51
2023-03-05T20:41:16.123Z,6.57
2023-03-05T20:44:45.112Z,6.62
2023-03-05T20:48:15.826Z,6.67
2023-03-05T20:51:53.943Z,6.68
2023-03-05T20:55:23.468Z,6.68
2023-03-05T20:58:54.821Z,6.71
2023-03-05T21:02:23.906Z,6.79
2023-03-05T21:05:53.201Z,6.85
2023-03-05T21:09:22.192Z,6.88
2023-03-05T21:12:50.914Z,6.93
2023-03-05T21:16:20.082Z,6.95
2023-03-05T21:19:42.025Z,6.96
2023-03-05T21:23:10.839Z,6.96
2023-03-05T21:26:42.805Z,7.00
2023-03-05T21:30:11.612Z,7.05
2023-03-05T21:33:40.356Z,7.10
2023-03-05T21:37:09.027Z,7.16
2023-03-05T21:40:37.745Z,7.21
2023-03-05T21:44:06.573Z,7.25
2023-03-05T21:47:35.619Z,7.26
2023-03-05T21:51:04.410Z,7.29
2023-03-05T21:54:33.270Z,7.33
2023-03-05T21:58:01.883Z,7.33
2023-03-05T22:01:31.208Z,7.32
2023-03-05T22:05:00.388Z,7.34
2023-03-05T22:08:29.666Z,7.36
2023-03-05T22:11:58.934Z,7.39
2023-03-05T22:15:28.136Z,7.42
2023-03-05T22:18:57.168Z,7.45
2023-03-05T22:22:26.210Z,7.48
2023-03-05T22:25:55.807Z,7.47
2023-03-05T22:29:25.400Z,7.47
2023-03-05T22:32:54.101Z,7.49
2023-03-05T22:36:22.882Z,7.52
2023-03-05T22:39:54.662Z,7.57
2023-03-05T22:43:24.304Z,7.64
2023-03-05T22:46:59.607Z,7.69
2023-03-05T22:50:28.527Z,7.74
2023-03-05T22:53:58.326Z,7.76
2023-03-05T22:57:27.583Z,7.81
2023-03-05T23:00:41.855Z,7.84
2023-03-05T23:04:14.163Z,7.87
2023-03-05T23:07:43.595Z,7.86
2023-03-05T23:11:13.469Z,7.87
2023-03-05T23:14:42.666Z,7.87
2023-03-05T23:18:12.134Z,7.88
2023-03-05T23:21:40.900Z,7.87
2023-03-05T23:25:09.968Z,7.87
2023-03-05T23:28:39.169Z,7.87
2023-03-05T23:32:07.973Z,7.84
2023-03-05T23:35:37.483Z,7.85
2023-03-05T23:39:07.697Z,7.85
2023-03-05T23:42:37.009Z,7.81
2023-03-05T23:46:06.130Z,7.77
2023-03-05T23:49:35.352Z,7.76
2023-03-05T23:53:04.509Z,7.75
2023-03-05T23:56:32.766Z,7.76
2023-03-05T23:59:55.343Z,7.77
